createdAt,value
2022-11-02T00:02:14.732Z,2.83
2022-11-02T00:04:41.345Z,2.35
2022-11-02T00:07:07.940Z,2.53
2022-11-02T00:09:34.538Z,2.83
2022-11-02T00:12:01.229Z,2.38
2022-11-02T00:14:27.861Z,3.33
2022-11-02T00:16:54.621Z,1.95
2022-11-02T00:19:21.287Z,2.55
2022-11-02T00:21:47.925Z,5.63
2022-11-02T00:24:15.001Z,2.28
2022-11-02T00:26:41.595Z,2.47
2022-11-02T00:29:08.950Z,1.45
2022-11-02T00:31:35.541Z,3.03
2022-11-02T00:34:02.139Z,1.90
2022-11-02T00:36:28.892Z,2.53
2022-11-02T00:38:55.475Z,3.92
2022-11-02T00:41:22.436Z,3.78
2022-11-02T00:43:49.027Z,2.58
2022-11-02T00:46:15.642Z,2.72
2022-11-02T00:48:42.225Z,4.00
2022-11-02T00:51:08.854Z,2.25
2022-11-02T00:53:35.430Z,2.67
2022-11-02T00:56:02.043Z,1.83
2022-11-02T00:58:28.622Z,1.95
2022-11-02T01:00:56.454Z,2.38
2022-11-02T01:03:23.066Z,2.60
2022-11-02T01:05:49.643Z,3.53
2022-11-02T01:08:16.274Z,1.63
2022-11-02T01:10:48.101Z,2.05
2022-11-02T01:13:16.374Z,1.70
2022-11-02T01:15:43.109Z,4.22
2022-11-02T01:18:09.699Z,1.77
2022-11-02T01:20:36.326Z,3.05
2022-11-02T01:23:02.896Z,2.38
2022-11-02T01:25:29.465Z,2.22
2022-11-02T01:27:56.322Z,1.48
2022-11-02T01:30:22.880Z,1.67
2022-11-02T01:32:49.477Z,2.55
2022-11-02T01:35:16.694Z,3.22
2022-11-02T01:37:43.363Z,1.73
2022-11-02T01:40:10.422Z,1.73
2022-11-02T01:42:37.029Z,2.70
2022-11-02T01:45:03.983Z,2.72
2022-11-02T01:47:35.428Z,1.70
2022-11-02T01:50:23.701Z,1.38
2022-11-02T01:52:50.285Z,1.85
2022-11-02T01:55:23.445Z,4.85
2022-11-02T01:57:57.861Z,1.73
2022-11-02T02:00:24.488Z,1.40
2022-11-02T02:03:07.261Z,3.35
2022-11-02T02:05:42.242Z,1.38
2022-11-02T02:08:10.515Z,1.63
2022-11-02T02:10:37.081Z,1.52
2022-11-02T02:13:05.876Z,3.13
2022-11-02T02:15:47.877Z,1.35
2022-11-02T02:18:24.217Z,1.90
2022-11-02T02:21:11.417Z,2.05
2022-11-02T02:23:59.378Z,2.25
2022-11-02T02:26:59.222Z,2.30
2022-11-02T02:29:51.184Z,2.22
2022-11-02T02:32:44.491Z,1.63
2022-11-02T02:35:29.922Z,1.92
2022-11-02T02:38:08.610Z,1.10
2022-11-02T02:40:43.418Z,2.45
2022-11-02T02:43:15.534Z,1.88
2022-11-02T02:45:54.423Z,1.20
2022-11-02T02:48:22.993Z,1.52
2022-11-02T02:51:12.484Z,1.92
2022-11-02T02:53:44.790Z,1.45
2022-11-02T02:56:13.565Z,1.25
2022-11-02T02:59:06.304Z,1.20
2022-11-02T03:01:34.385Z,1.75
2022-11-02T03:04:01.733Z,1.83
2022-11-02T03:06:30.657Z,1.50
2022-11-02T03:09:26.793Z,1.98
2022-11-02T03:12:12.142Z,1.40
2022-11-02T03:15:04.796Z,1.00
2022-11-02T03:18:06.305Z,1.42
2022-11-02T03:20:54.006Z,2.33
2022-11-02T03:23:35.499Z,1.20
2022-11-02T03:26:16.806Z,1.52
2022-11-02T03:29:10.758Z,2.07
2022-11-02T03:31:47.006Z,1.25
2022-11-02T03:34:29.005Z,1.05
2022-11-02T03:37:13.197Z,1.88
2022-11-02T03:39:45.881Z,1.65
2022-11-02T03:42:18.005Z,1.33
2022-11-02T03:44:46.584Z,3.17
2022-11-02T03:47:16.809Z,1.40
2022-11-02T03:49:45.733Z,2.15
2022-11-02T03:52:17.442Z,1.25
2022-11-02T03:54:47.475Z,2.17
2022-11-02T03:57:26.545Z,1.23
2022-11-02T04:03:43.272Z,1.90
2022-11-02T04:06:10.077Z,0.95
2022-11-02T04:08:45.945Z,2.38
2022-11-02T04:11:31.732Z,1.88
2022-11-02T04:14:16.983Z,1.67
2022-11-02T04:16:43.712Z,1.33
2022-11-02T04:19:29.298Z,1.05
2022-11-02T04:22:15.004Z,1.27
2022-11-02T04:25:00.922Z,0.82
2022-11-02T04:27:27.535Z,1.83
2022-11-02T04:29:54.099Z,1.33
2022-11-02T04:32:39.376Z,1.30
2022-11-02T04:35:06.580Z,1.55
2022-11-02T04:38:00.272Z,1.63
2022-11-02T04:40:27.359Z,0.90
2022-11-02T04:42:54.156Z,1.50
2022-11-02T04:45:20.965Z,1.48
2022-11-02T04:47:47.543Z,1.40
2022-11-02T04:50:14.171Z,0.77
2022-11-02T04:52:40.755Z,0.80
2022-11-02T04:55:07.918Z,1.08
2022-11-02T04:57:34.677Z,1.13
2022-11-02T05:00:01.460Z,1.48
2022-11-02T05:02:28.077Z,1.02
2022-11-02T05:04:54.783Z,1.15
2022-11-02T05:07:21.396Z,2.58
2022-11-02T05:09:47.934Z,1.10
2022-11-02T05:12:14.710Z,1.27
2022-11-02T05:14:41.243Z,0.80
2022-11-02T05:17:07.783Z,1.13
2022-11-02T05:19:34.322Z,1.10
2022-11-02T05:22:00.871Z,1.00
2022-11-02T05:24:27.403Z,1.30
2022-11-02T05:26:54.289Z,1.10
2022-11-02T05:29:20.872Z,1.60
2022-11-02T05:31:47.419Z,0.80
2022-11-02T05:34:13.976Z,1.33
2022-11-02T05:36:40.516Z,0.95
2022-11-02T05:39:07.100Z,1.23
2022-11-02T05:41:34.126Z,1.08
2022-11-02T05:44:00.760Z,1.35
2022-11-02T05:46:27.322Z,3.60
2022-11-02T05:48:53.887Z,1.10
2022-11-02T05:51:20.427Z,1.08
2022-11-02T05:53:47.067Z,3.30
2022-11-02T05:56:14.545Z,1.27
2022-11-02T05:58:41.197Z,4.13
2022-11-02T06:01:09.043Z,5.70
2022-11-02T06:03:36.343Z,11.13
2022-11-02T06:06:05.455Z,10.05
2022-11-02T06:08:36.285Z,6.80
2022-11-02T06:11:08.351Z,10.77
2022-11-02T06:13:35.419Z,9.88
2022-11-02T06:16:03.430Z,8.02
2022-11-02T06:18:31.532Z,4.40
2022-11-02T06:20:59.002Z,5.13
2022-11-02T06:23:26.456Z,3.70
2022-11-02T06:25:54.540Z,8.77
2022-11-02T06:28:22.990Z,5.63
2022-11-02T06:30:50.370Z,6.90
2022-11-02T06:33:17.940Z,8.73
2022-11-02T06:35:46.332Z,6.40
2022-11-02T06:38:12.933Z,4.95
2022-11-02T06:40:39.722Z,7.65
2022-11-02T06:43:22.763Z,7.97
2022-11-02T06:45:49.647Z,7.35
2022-11-02T06:48:16.429Z,5.35
2022-11-02T06:50:42.997Z,4.18
2022-11-02T06:53:09.556Z,6.70
2022-11-02T06:55:36.155Z,6.97
2022-11-02T06:58:02.706Z,4.10
2022-11-02T07:00:30.156Z,6.20
2022-11-02T07:03:01.839Z,4.82
2022-11-02T07:05:29.392Z,2.05
2022-11-02T07:07:56.339Z,4.15
2022-11-02T07:10:23.891Z,4.60
2022-11-02T07:12:54.312Z,3.58
2022-11-02T07:15:25.811Z,5.53
2022-11-02T07:17:53.020Z,5.22
2022-11-02T07:20:20.310Z,4.20
2022-11-02T07:23:05.772Z,5.20
2022-11-02T07:25:33.420Z,3.00
2022-11-02T07:28:01.430Z,4.32
2022-11-02T07:30:29.646Z,4.05
2022-11-02T07:32:56.551Z,4.63
2022-11-02T07:35:23.207Z,3.55
2022-11-02T07:38:06.523Z,4.05
2022-11-02T07:40:35.359Z,3.60
2022-11-02T07:43:04.313Z,3.67
2022-11-02T07:45:32.086Z,4.07
2022-11-02T07:47:58.619Z,2.97
2022-11-02T07:50:27.063Z,3.13
2022-11-02T07:52:55.800Z,4.85
2022-11-02T07:55:24.815Z,5.38
2022-11-02T07:57:54.328Z,2.25
2022-11-02T08:00:21.236Z,5.40
2022-11-02T08:02:47.844Z,2.53
2022-11-02T08:05:14.584Z,3.05
2022-11-02T08:07:41.163Z,4.18
2022-11-02T08:10:08.127Z,3.17
2022-11-02T08:12:34.702Z,1.38
2022-11-02T08:15:06.281Z,3.95
2022-11-02T08:17:34.020Z,3.20
2022-11-02T08:20:00.542Z,3.53
2022-11-02T08:22:27.147Z,4.03
2022-11-02T08:24:53.685Z,2.33
2022-11-02T08:27:20.388Z,1.80
2022-11-02T08:29:46.930Z,3.53
2022-11-02T08:32:13.523Z,3.25
2022-11-02T08:34:40.070Z,1.92
2022-11-02T08:37:07.990Z,2.15
2022-11-02T08:39:34.520Z,2.90
2022-11-02T08:42:01.102Z,2.35
2022-11-02T08:44:27.643Z,2.90
2022-11-02T08:46:55.768Z,1.77
2022-11-02T08:49:22.623Z,2.88
2022-11-02T08:51:49.223Z,6.35
2022-11-02T08:54:15.894Z,2.65
2022-11-02T08:56:42.441Z,1.90
2022-11-02T08:59:09.096Z,2.47
2022-11-02T09:01:35.758Z,1.58
2022-11-02T09:04:02.342Z,2.60
2022-11-02T09:06:28.895Z,1.75
2022-11-02T09:08:57.922Z,2.67
2022-11-02T09:11:25.759Z,2.83
2022-11-02T09:13:56.690Z,1.23
2022-11-02T09:16:23.728Z,1.52
2022-11-02T09:18:50.301Z,2.63
2022-11-02T09:21:16.861Z,1.80
2022-11-02T09:23:44.481Z,2.80
2022-11-02T09:26:11.023Z,1.63
2022-11-02T09:28:37.636Z,2.10
2022-11-02T09:31:07.373Z,2.55
2022-11-02T09:33:37.270Z,3.22
2022-11-02T09:36:05.396Z,3.45
2022-11-02T09:38:32.056Z,2.50
2022-11-02T09:40:58.560Z,2.38
2022-11-02T09:43:48.558Z,1.85
2022-11-02T09:46:23.296Z,2.20
2022-11-02T09:48:54.835Z,1.92
2022-11-02T09:51:23.296Z,1.88
2022-11-02T09:54:08.036Z,2.80
2022-11-02T09:56:37.074Z,2.83
2022-11-02T09:59:15.335Z,2.95
2022-11-02T10:01:56.805Z,1.70
2022-11-02T10:04:26.688Z,4.05
2022-11-02T10:07:11.783Z,2.08
2022-11-02T10:09:49.824Z,1.42
2022-11-02T10:12:27.927Z,2.22
2022-11-02T10:15:05.035Z,4.03
2022-11-02T10:17:36.538Z,2.17
2022-11-02T10:20:22.417Z,1.75
2022-11-02T10:22:49.036Z,1.70
2022-11-02T10:25:16.911Z,2.53
2022-11-02T10:27:46.035Z,3.00
2022-11-02T10:30:18.380Z,1.45
2022-11-02T10:32:47.581Z,3.17
2022-11-02T10:35:51.422Z,2.42
2022-11-02T10:38:23.384Z,2.65
2022-11-02T10:40:58.867Z,2.63
2022-11-02T10:43:25.365Z,3.13
2022-11-02T10:46:29.911Z,2.40
2022-11-02T10:49:09.695Z,2.90
2022-11-02T10:51:36.250Z,1.70
2022-11-02T10:54:03.065Z,1.52
2022-11-02T10:56:33.623Z,2.75
2022-11-02T10:59:02.527Z,2.40
2022-11-02T11:01:31.345Z,1.45
2022-11-02T11:04:22.243Z,1.90
2022-11-02T11:06:49.137Z,2.00
2022-11-02T11:09:19.647Z,2.50
2022-11-02T11:12:06.642Z,1.75
2022-11-02T11:20:41.012Z,2.22
2022-11-02T11:23:23.965Z,2.40
2022-11-02T11:25:58.876Z,2.22
2022-11-02T11:28:51.798Z,1.73
2022-11-02T11:31:19.180Z,1.85
2022-11-02T11:33:59.959Z,1.67
2022-11-02T11:36:30.551Z,1.38
2022-11-02T11:39:06.936Z,2.50
2022-11-02T11:41:35.651Z,2.75
2022-11-02T11:44:02.923Z,2.22
2022-11-02T11:46:43.862Z,2.20
2022-11-02T11:50:09.354Z,2.08
2022-11-02T11:52:35.820Z,1.63
2022-11-02T11:55:25.406Z,2.20
2022-11-02T11:58:16.491Z,2.03
2022-11-02T12:00:43.378Z,2.00
2022-11-02T12:03:12.396Z,1.80
2022-11-02T12:06:08.512Z,1.92
2022-11-02T12:09:10.038Z,1.65
2022-11-02T12:12:06.535Z,2.67
2022-11-02T12:14:43.866Z,2.92
2022-11-02T12:17:10.432Z,2.47
2022-11-02T12:20:14.288Z,1.23
2022-11-02T12:23:16.595Z,1.88
2022-11-02T12:25:49.252Z,1.88
2022-11-02T12:28:22.664Z,2.67
2022-11-02T12:30:59.983Z,2.45
2022-11-02T12:33:38.562Z,2.50
2022-11-02T12:36:31.584Z,1.33
2022-11-02T12:39:08.686Z,1.30
2022-11-02T12:41:55.218Z,2.25
2022-11-02T12:44:43.155Z,1.80
2022-11-02T12:47:30.451Z,2.80
2022-11-02T12:50:21.037Z,1.73
2022-11-02T12:52:47.669Z,2.47
2022-11-02T12:55:18.661Z,3.53
2022-11-02T12:57:46.306Z,2.55
2022-11-02T13:00:22.265Z,2.80
2022-11-02T13:03:25.819Z,1.90
2022-11-02T13:06:02.230Z,1.33
2022-11-02T13:08:39.067Z,2.35
2022-11-02T13:11:12.664Z,2.47
2022-11-02T13:13:45.750Z,2.50
2022-11-02T13:16:16.187Z,2.13
2022-11-02T13:18:50.096Z,2.70
2022-11-02T13:21:23.707Z,1.92
2022-11-02T13:23:54.793Z,1.88
2022-11-02T13:26:37.627Z,2.93
2022-11-02T13:29:30.719Z,3.33
2022-11-02T13:32:33.364Z,1.10
2022-11-02T13:35:06.354Z,2.22
2022-11-02T13:37:40.360Z,1.35
2022-11-02T13:40:15.927Z,1.95
2022-11-02T13:42:59.139Z,1.58
2022-11-02T13:45:50.456Z,1.90
2022-11-02T13:48:44.734Z,1.25
2022-11-02T13:51:29.340Z,2.13
2022-11-02T13:54:05.604Z,1.90
2022-11-02T13:56:36.283Z,2.03
2022-11-02T13:59:19.734Z,2.22
2022-11-02T14:01:46.801Z,1.45
2022-11-02T14:04:15.663Z,2.25
2022-11-02T14:06:58.975Z,2.97
2022-11-02T14:09:39.695Z,2.63
2022-11-02T14:12:24.582Z,2.33
2022-11-02T14:15:12.710Z,2.22
2022-11-02T14:17:54.772Z,2.00
2022-11-02T14:20:40.765Z,2.15
2022-11-02T14:23:10.262Z,2.03
2022-11-02T14:25:45.591Z,1.52
2022-11-02T14:28:21.209Z,1.77
2022-11-02T14:30:52.929Z,1.23
2022-11-02T14:33:54.281Z,1.75
2022-11-02T14:37:10.343Z,2.38
2022-11-02T14:39:49.424Z,2.80
2022-11-02T14:42:36.855Z,2.85
2022-11-02T14:45:35.939Z,1.58
2022-11-02T14:48:04.907Z,1.63
2022-11-02T14:50:32.663Z,2.58
2022-11-02T14:53:07.446Z,2.70
2022-11-02T14:55:38.561Z,3.42
2022-11-02T14:58:20.175Z,2.83
2022-11-02T15:00:49.823Z,3.47
2022-11-02T15:03:29.257Z,1.48
2022-11-02T15:06:03.759Z,2.10
2022-11-02T15:08:49.746Z,1.88
2022-11-02T15:11:49.486Z,1.63
2022-11-02T15:14:42.457Z,2.30
2022-11-02T15:17:15.120Z,2.03
2022-11-02T15:19:46.985Z,2.22
2022-11-02T15:22:36.681Z,2.63
2022-11-02T15:25:13.492Z,2.40
2022-11-02T15:27:43.395Z,2.10
2022-11-02T15:30:25.270Z,2.72
2022-11-02T15:33:01.946Z,1.75
2022-11-02T15:35:35.714Z,3.95
2022-11-02T15:38:25.808Z,3.40
2022-11-02T15:44:12.186Z,2.42
2022-11-02T15:47:09.642Z,3.35
2022-11-02T15:50:12.427Z,3.00
2022-11-02T15:56:16.773Z,2.08
2022-11-02T15:58:58.217Z,4.88
2022-11-02T16:01:29.284Z,3.20
2022-11-02T16:04:03.190Z,2.50
2022-11-02T16:06:33.656Z,3.83
2022-11-02T16:09:02.031Z,1.52
2022-11-02T16:11:28.827Z,1.05
2022-11-02T16:14:17.047Z,1.73
2022-11-02T16:16:50.646Z,3.60
2022-11-02T16:19:21.537Z,2.40
2022-11-02T16:21:51.522Z,3.25
2022-11-02T16:24:18.939Z,5.05
2022-11-02T16:26:47.242Z,8.82
2022-11-02T16:29:30.281Z,9.63
2022-11-02T16:31:57.429Z,10.07
2022-11-02T16:34:31.178Z,9.00
2022-11-02T16:36:59.877Z,6.13
2022-11-02T16:39:34.455Z,6.47
2022-11-02T16:42:02.617Z,5.38
2022-11-02T16:44:31.978Z,4.47
2022-11-02T16:47:00.964Z,9.02
2022-11-02T16:49:28.937Z,6.43
2022-11-02T16:51:58.199Z,4.40
2022-11-02T16:54:33.799Z,7.22
2022-11-02T16:57:10.405Z,5.25
2022-11-02T16:59:56.247Z,6.78
2022-11-02T17:02:33.576Z,5.07
2022-11-02T17:05:04.870Z,3.63
2022-11-02T17:07:40.190Z,6.82
2022-11-02T17:10:08.456Z,7.10
2022-11-02T17:12:42.302Z,4.05
2022-11-02T17:15:15.956Z,3.90
2022-11-02T17:17:42.656Z,4.28
2022-11-02T17:20:14.498Z,4.38
2022-11-02T17:23:01.390Z,3.22
2022-11-02T17:25:33.802Z,6.65
2022-11-02T17:28:21.415Z,5.75
2022-11-02T17:30:48.413Z,4.38
2022-11-02T17:33:24.840Z,4.38
2022-11-02T17:35:53.517Z,5.05
2022-11-02T17:38:26.430Z,4.38
2022-11-02T17:40:53.986Z,6.18
2022-11-02T17:43:22.180Z,5.65
2022-11-02T17:45:59.428Z,5.47
2022-11-02T17:48:28.759Z,3.13
2022-11-02T17:50:56.755Z,3.53
2022-11-02T17:53:24.326Z,3.03
2022-11-02T17:55:51.583Z,4.28
2022-11-02T17:58:18.207Z,2.42
2022-11-02T18:00:44.897Z,4.65
2022-11-02T18:03:16.039Z,6.28
2022-11-02T18:05:46.619Z,5.73
2022-11-02T18:08:16.800Z,4.80
2022-11-02T18:10:45.789Z,3.88
2022-11-02T18:13:14.488Z,3.88
2022-11-02T18:15:41.693Z,4.88
2022-11-02T18:18:08.916Z,3.00
2022-11-02T18:20:40.297Z,3.50
2022-11-02T18:23:15.325Z,1.83
2022-11-02T18:25:42.269Z,3.65
2022-11-02T18:28:09.030Z,2.88
2022-11-02T18:30:35.711Z,2.13
2022-11-02T18:33:02.757Z,3.53
2022-11-02T18:35:29.415Z,5.50
2022-11-02T18:37:56.511Z,2.88
2022-11-02T18:40:23.084Z,2.03
2022-11-02T18:42:50.035Z,2.80
2022-11-02T18:45:16.693Z,2.40
2022-11-02T18:47:43.388Z,2.20
2022-11-02T18:50:12.804Z,3.03
2022-11-02T18:52:40.118Z,5.45
2022-11-02T18:55:07.141Z,3.42
2022-11-02T18:57:34.093Z,4.03
2022-11-02T19:00:02.601Z,2.53
2022-11-02T19:02:29.865Z,2.45
2022-11-02T19:04:56.536Z,3.30
2022-11-02T19:07:41.832Z,3.15
2022-11-02T19:10:08.995Z,4.53
2022-11-02T19:12:35.810Z,3.60
2022-11-02T19:15:02.390Z,4.80
2022-11-02T19:17:29.063Z,3.08
2022-11-02T19:19:56.143Z,2.88
2022-11-02T19:22:26.427Z,4.03
2022-11-02T19:24:53.327Z,3.65
2022-11-02T19:27:25.014Z,4.85
2022-11-02T19:29:52.356Z,2.42
2022-11-02T19:32:19.660Z,1.98
2022-11-02T19:34:46.330Z,2.33
2022-11-02T19:37:13.171Z,2.67
2022-11-02T19:39:39.731Z,6.32
2022-11-02T19:42:07.298Z,6.72
2022-11-02T19:44:37.089Z,4.38
2022-11-02T19:47:08.907Z,4.25
2022-11-02T19:49:35.462Z,5.93
2022-11-02T19:52:02.048Z,13.25
2022-11-02T19:54:28.586Z,2.88
2022-11-02T19:56:55.124Z,4.47
2022-11-02T19:59:22.438Z,6.75
2022-11-02T20:01:50.383Z,4.38
2022-11-02T20:04:17.002Z,4.90
2022-11-02T20:06:44.548Z,4.30
2022-11-02T20:09:19.126Z,5.03
2022-11-02T20:11:46.919Z,2.30
2022-11-02T20:14:15.041Z,3.17
2022-11-02T20:16:41.846Z,3.63
2022-11-02T20:19:09.014Z,4.00
2022-11-02T20:21:42.422Z,4.30
2022-11-02T20:24:10.225Z,3.92
2022-11-02T20:26:38.188Z,4.85
2022-11-02T20:29:06.015Z,2.63
2022-11-02T20:31:39.538Z,3.85
2022-11-02T20:34:08.131Z,3.60
2022-11-02T20:36:34.760Z,4.72
2022-11-02T20:39:04.468Z,3.53
2022-11-02T20:41:30.994Z,2.20
2022-11-02T20:43:57.639Z,8.68
2022-11-02T20:46:37.631Z,3.13
2022-11-02T20:51:52.353Z,3.22
2022-11-02T20:54:19.647Z,4.65
2022-11-02T20:56:46.973Z,2.25
2022-11-02T20:59:13.766Z,4.20
2022-11-02T21:01:40.831Z,3.00
2022-11-02T21:04:07.582Z,3.70
2022-11-02T21:06:34.251Z,4.03
2022-11-02T21:09:00.956Z,5.22
2022-11-02T21:11:46.310Z,4.60
2022-11-02T21:14:12.887Z,6.43
2022-11-02T21:16:39.469Z,2.85
2022-11-02T21:19:06.263Z,4.97
2022-11-02T21:21:32.834Z,2.55
2022-11-02T21:23:59.420Z,3.33
2022-11-02T21:26:26.039Z,3.28
2022-11-02T21:28:52.602Z,3.53
2022-11-02T21:31:21.381Z,2.50
2022-11-02T21:33:49.338Z,4.25
2022-11-02T21:36:17.375Z,4.75
2022-11-02T21:38:45.040Z,4.40
2022-11-02T21:41:21.880Z,3.20
2022-11-02T21:43:51.733Z,2.05
2022-11-02T21:46:19.593Z,2.83
2022-11-02T21:48:46.399Z,3.17
2022-11-02T21:51:15.615Z,2.30
2022-11-02T21:53:44.063Z,2.30
2022-11-02T21:56:16.838Z,1.63
2022-11-02T21:58:45.899Z,7.78
2022-11-02T22:01:37.707Z,3.55
2022-11-02T22:04:05.905Z,1.70
2022-11-02T22:06:32.826Z,4.30
2022-11-02T22:09:00.803Z,5.07
2022-11-02T22:11:27.894Z,2.67
2022-11-02T22:13:56.812Z,5.07
2022-11-02T22:16:25.051Z,7.18
2022-11-02T22:18:57.550Z,3.33
2022-11-02T22:21:25.892Z,4.82
2022-11-02T22:23:53.187Z,4.88
2022-11-02T22:26:22.518Z,4.20
2022-11-02T22:28:49.947Z,3.70
2022-11-02T22:31:22.037Z,2.55
2022-11-02T22:36:18.974Z,3.75
2022-11-02T22:38:48.345Z,5.63
2022-11-02T22:41:15.774Z,3.60
2022-11-02T22:43:42.844Z,3.13
2022-11-02T22:46:10.515Z,3.00
2022-11-02T22:48:37.540Z,4.40
2022-11-02T22:51:05.995Z,1.73
2022-11-02T22:53:33.056Z,2.97
2022-11-02T22:56:00.461Z,2.97
2022-11-02T22:58:28.243Z,3.22
2022-11-02T23:00:55.564Z,2.65
2022-11-02T23:03:23.016Z,3.78
2022-11-02T23:05:50.100Z,3.22
2022-11-02T23:08:16.802Z,4.07
2022-11-02T23:11:02.194Z,1.73
2022-11-02T23:13:28.866Z,4.70
2022-11-02T23:16:21.236Z,3.60
2022-11-02T23:19:10.539Z,2.80
2022-11-02T23:21:38.972Z,2.13
2022-11-02T23:24:24.516Z,2.53
2022-11-02T23:26:51.123Z,2.35
2022-11-02T23:29:36.235Z,3.17
2022-11-02T23:32:21.527Z,2.55
2022-11-02T23:35:06.879Z,2.20
2022-11-02T23:37:33.443Z,1.98
2022-11-02T23:40:00.059Z,1.25
2022-11-02T23:42:26.721Z,1.20
2022-11-02T23:44:53.376Z,2.38
2022-11-02T23:47:40.180Z,4.53
2022-11-02T23:50:08.171Z,2.38
2022-11-02T23:52:53.371Z,1.35
2022-11-02T23:55:38.719Z,2.30
2022-11-02T23:58:05.277Z,1.90
